createdAt,value
2022-09-02T00:01:22.503Z,18.23
2022-09-02T00:03:50.170Z,18.20
2022-09-02T00:06:17.437Z,18.19
2022-09-02T00:08:44.340Z,18.18
2022-09-02T00:11:16.873Z,18.18
2022-09-02T00:13:44.292Z,18.17
2022-09-02T00:16:11.640Z,18.17
2022-09-02T00:18:39.645Z,18.16
2022-09-02T00:21:13.864Z,18.17
2022-09-02T00:23:41.161Z,18.17
2022-09-02T00:26:08.619Z,18.19
2022-09-02T00:28:36.294Z,18.21
2022-09-02T00:31:03.176Z,18.19
2022-09-02T00:33:31.711Z,18.18
2022-09-02T00:36:00.194Z,18.17
2022-09-02T00:38:28.485Z,18.10
2022-09-02T00:40:55.602Z,18.03
2022-09-02T00:43:24.025Z,17.97
2022-09-02T00:45:51.722Z,17.95
2022-09-02T00:48:18.696Z,17.92
2022-09-02T00:50:46.224Z,17.91
2022-09-02T00:53:14.193Z,17.92
2022-09-02T00:55:44.944Z,17.91
2022-09-02T00:58:17.693Z,17.91
2022-09-02T01:00:46.658Z,17.91
2022-09-02T01:03:16.112Z,17.89
2022-09-02T01:05:45.564Z,17.87
2022-09-02T01:08:16.715Z,17.90
2022-09-02T01:10:44.789Z,17.92
2022-09-02T01:13:12.921Z,17.94
2022-09-02T01:15:46.568Z,17.92
2022-09-02T01:18:15.435Z,17.90
2022-09-02T01:20:42.791Z,17.87
2022-09-02T01:23:09.813Z,17.86
2022-09-02T01:25:38.529Z,17.85
2022-09-02T01:28:07.035Z,17.85
2022-09-02T01:30:34.670Z,17.83
2022-09-02T01:33:02.357Z,17.80
2022-09-02T01:35:30.151Z,17.74
2022-09-02T01:37:58.178Z,17.73
2022-09-02T01:40:26.269Z,17.76
2022-09-02T01:42:54.596Z,17.76
2022-09-02T01:45:22.770Z,17.79
2022-09-02T01:47:50.369Z,17.77
2022-09-02T01:50:17.942Z,17.75
2022-09-02T01:52:45.024Z,17.77
2022-09-02T01:55:12.408Z,17.75
2022-09-02T01:57:39.566Z,17.73
2022-09-02T02:00:08.467Z,17.71
2022-09-02T02:02:40.089Z,17.68
2022-09-02T02:05:11.147Z,17.67
2022-09-02T02:07:41.069Z,17.67
2022-09-02T02:10:10.399Z,17.68
2022-09-02T02:12:38.346Z,17.68
2022-09-02T02:15:12.233Z,17.68
2022-09-02T02:17:39.417Z,17.68
2022-09-02T02:20:07.984Z,17.70
2022-09-02T02:22:35.780Z,17.62
2022-09-02T02:25:02.966Z,17.56
2022-09-02T02:27:31.608Z,17.59
2022-09-02T02:30:05.336Z,17.59
2022-09-02T02:32:32.710Z,17.62
2022-09-02T02:35:01.226Z,17.66
2022-09-02T02:37:30.649Z,17.67
2022-09-02T02:39:57.812Z,17.73
2022-09-02T02:42:27.712Z,17.77
2022-09-02T02:44:55.545Z,17.80
2022-09-02T02:47:23.040Z,17.75
2022-09-02T02:49:49.924Z,17.77
2022-09-02T02:52:16.828Z,17.80
2022-09-02T02:54:44.038Z,17.79
2022-09-02T02:57:11.434Z,17.85
2022-09-02T02:59:38.258Z,17.82
2022-09-02T03:02:06.435Z,17.85
2022-09-02T03:04:34.359Z,17.81
2022-09-02T03:07:01.275Z,17.77
2022-09-02T03:09:29.531Z,17.80
2022-09-02T03:11:57.201Z,17.80
2022-09-02T03:14:26.292Z,17.77
2022-09-02T03:16:53.479Z,17.72
2022-09-02T03:19:20.413Z,17.71
2022-09-02T03:21:47.312Z,17.69
2022-09-02T03:24:14.497Z,17.71
2022-09-02T03:26:42.995Z,17.63
2022-09-02T03:29:11.476Z,17.63
2022-09-02T03:31:39.047Z,17.68
2022-09-02T03:34:07.958Z,17.65
2022-09-02T03:36:37.323Z,17.64
2022-09-02T03:39:06.207Z,17.73
2022-09-02T03:41:37.392Z,17.67
2022-09-02T03:44:05.539Z,17.64
2022-09-02T03:46:33.519Z,17.62
2022-09-02T03:49:00.592Z,17.64
2022-09-02T03:51:28.082Z,17.70
2022-09-02T03:53:55.630Z,17.68
2022-09-02T03:56:24.620Z,17.56
2022-09-02T03:58:51.907Z,17.52
2022-09-02T04:01:24.784Z,17.45
2022-09-02T04:03:55.717Z,17.52
2022-09-02T04:06:24.763Z,17.39
2022-09-02T04:08:54.955Z,17.34
2022-09-02T04:11:23.680Z,17.35
2022-09-02T04:13:53.375Z,17.37
2022-09-02T04:16:28.903Z,17.32
2022-09-02T04:19:02.026Z,17.38
2022-09-02T04:21:32.207Z,17.41
2022-09-02T04:23:59.045Z,17.43
2022-09-02T04:26:27.772Z,17.31
2022-09-02T04:28:56.801Z,17.33
2022-09-02T04:31:25.898Z,17.46
2022-09-02T04:33:54.014Z,17.33
2022-09-02T04:36:22.569Z,17.34
2022-09-02T04:38:54.162Z,17.25
2022-09-02T04:41:26.235Z,17.18
2022-09-02T04:43:57.131Z,17.14
2022-09-02T04:46:34.200Z,17.20
2022-09-02T04:49:04.690Z,17.27
2022-09-02T04:51:33.449Z,17.35
2022-09-02T04:54:02.049Z,17.50
2022-09-02T04:56:32.287Z,17.45
2022-09-02T04:59:01.395Z,17.51
2022-09-02T05:01:32.503Z,17.58
2022-09-02T05:04:07.374Z,17.54
2022-09-02T05:06:41.954Z,17.61
2022-09-02T05:09:15.545Z,17.47
2022-09-02T05:11:42.824Z,17.38
2022-09-02T05:14:10.048Z,17.36
2022-09-02T05:16:40.699Z,17.32
2022-09-02T05:19:14.717Z,17.31
2022-09-02T05:21:49.210Z,17.28
2022-09-02T05:24:26.819Z,17.34
2022-09-02T05:27:37.631Z,17.35
2022-09-02T05:30:06.772Z,17.40
2022-09-02T05:32:37.725Z,17.33
2022-09-02T05:35:06.572Z,17.46
2022-09-02T05:37:35.465Z,17.34
2022-09-02T05:40:03.515Z,17.35
2022-09-02T05:42:31.977Z,17.50
2022-09-02T05:44:59.033Z,17.60
2022-09-02T05:47:25.972Z,17.60
2022-09-02T05:49:54.109Z,17.52
2022-09-02T05:52:23.329Z,17.49
2022-09-02T05:54:53.155Z,17.51
2022-09-02T05:57:22.110Z,17.62
2022-09-02T06:00:05.918Z,17.59
2022-09-02T06:02:43.377Z,17.67
2022-09-02T06:05:18.921Z,17.71
2022-09-02T06:07:53.767Z,17.71
2022-09-02T06:10:22.458Z,17.71
2022-09-02T06:12:50.317Z,17.80
2022-09-02T06:15:21.494Z,17.80
2022-09-02T06:17:49.125Z,17.88
2022-09-02T06:20:16.320Z,17.91
2022-09-02T06:22:46.582Z,17.86
2022-09-02T06:25:14.640Z,17.94
2022-09-02T06:27:41.627Z,17.99
2022-09-02T06:30:09.640Z,18.01
2022-09-02T06:32:36.591Z,18.09
2022-09-02T06:35:08.752Z,18.28
2022-09-02T06:37:38.087Z,18.27
2022-09-02T06:40:05.457Z,18.15
2022-09-02T06:42:32.728Z,18.18
2022-09-02T06:45:24.573Z,18.37
2022-09-02T06:47:53.851Z,18.53
2022-09-02T06:50:20.905Z,18.68
2022-09-02T06:52:48.119Z,18.76
2022-09-02T06:55:18.198Z,18.74
2022-09-02T06:57:45.237Z,18.64
2022-09-02T07:00:14.163Z,18.68
2022-09-02T07:02:43.710Z,18.62
2022-09-02T07:05:10.716Z,18.63
2022-09-02T07:07:40.232Z,18.75
2022-09-02T07:10:11.979Z,18.90
2022-09-02T07:12:40.887Z,18.82
2022-09-02T07:15:13.939Z,18.72
2022-09-02T07:17:42.880Z,18.60
2022-09-02T07:20:14.673Z,18.56
2022-09-02T07:25:23.140Z,18.60
2022-09-02T07:27:52.300Z,18.56
2022-09-02T07:30:19.476Z,18.54
2022-09-02T07:32:49.725Z,18.61
2022-09-02T07:35:20.067Z,18.69
2022-09-02T07:37:47.103Z,18.75
2022-09-02T07:40:14.446Z,18.77
2022-09-02T07:42:43.684Z,18.91
2022-09-02T07:45:11.955Z,18.93
2022-09-02T07:47:41.065Z,18.84
2022-09-02T07:50:20.765Z,18.88
2022-09-02T07:52:55.768Z,18.98
2022-09-02T07:55:23.952Z,19.02
2022-09-02T07:57:52.398Z,19.19
2022-09-02T08:00:20.698Z,19.37
2022-09-02T08:02:50.825Z,19.57
2022-09-02T08:05:23.336Z,19.62
2022-09-02T08:07:51.255Z,19.76
2022-09-02T08:10:20.301Z,19.90
2022-09-02T08:12:47.506Z,19.97
2022-09-02T08:15:14.958Z,20.00
2022-09-02T08:17:43.326Z,20.08
2022-09-02T08:20:12.681Z,20.17
2022-09-02T08:22:40.469Z,20.24
2022-09-02T08:25:08.401Z,20.33
2022-09-02T08:27:35.646Z,20.39
2022-09-02T08:30:03.524Z,20.37
2022-09-02T08:32:32.943Z,20.30
2022-09-02T08:35:02.787Z,20.32
2022-09-02T08:37:32.205Z,20.39
2022-09-02T08:39:59.104Z,20.43
2022-09-02T08:42:32.097Z,20.40
2022-09-02T08:45:04.354Z,20.44
2022-09-02T08:47:32.908Z,20.53
2022-09-02T08:50:03.398Z,20.56
2022-09-02T08:52:36.882Z,20.58
2022-09-02T08:55:06.462Z,20.53
2022-09-02T08:57:33.622Z,20.51
2022-09-02T09:00:01.497Z,20.54
2022-09-02T09:02:47.446Z,20.57
2022-09-02T09:05:14.609Z,20.63
2022-09-02T09:07:54.177Z,20.83
2022-09-02T09:10:37.139Z,21.07
2022-09-02T09:13:15.552Z,21.25
2022-09-02T09:15:57.772Z,21.37
2022-09-02T09:18:35.034Z,21.50
2022-09-02T09:21:02.128Z,21.63
2022-09-02T09:23:34.111Z,21.64
2022-09-02T09:26:11.585Z,21.70
2022-09-02T09:28:44.790Z,21.87
2022-09-02T09:31:13.149Z,22.05
2022-09-02T09:33:41.623Z,22.11
2022-09-02T09:36:10.132Z,22.24
2022-09-02T09:38:40.790Z,22.40
2022-09-02T09:41:15.571Z,22.46
2022-09-02T09:43:43.160Z,22.56
2022-09-02T09:46:27.692Z,22.65
2022-09-02T09:48:55.188Z,22.78
2022-09-02T09:51:22.073Z,22.80
2022-09-02T09:53:48.960Z,22.95
2022-09-02T09:56:16.184Z,22.97
2022-09-02T09:58:46.697Z,23.04
2022-09-02T10:01:15.866Z,23.19
2022-09-02T10:03:47.901Z,23.37
2022-09-02T10:06:38.496Z,23.43
2022-09-02T10:09:07.026Z,23.39
2022-09-02T10:11:35.543Z,23.39
2022-09-02T10:14:06.735Z,23.50
2022-09-02T10:16:57.878Z,23.59
2022-09-02T10:19:37.946Z,23.79
2022-09-02T10:22:11.104Z,23.92
2022-09-02T10:24:41.021Z,24.06
2022-09-02T10:27:11.767Z,24.05
2022-09-02T10:29:50.759Z,24.19
2022-09-02T10:32:38.296Z,24.32
2022-09-02T10:35:25.127Z,24.20
2022-09-02T10:37:58.685Z,24.21
2022-09-02T10:40:42.277Z,24.42
2022-09-02T10:43:24.514Z,24.62
2022-09-02T10:45:54.905Z,24.63
2022-09-02T10:48:23.253Z,24.65
2022-09-02T10:50:56.227Z,24.76
2022-09-02T10:53:34.411Z,24.77
2022-09-02T10:56:04.206Z,24.84
2022-09-02T10:58:31.329Z,25.00
2022-09-02T11:00:58.520Z,25.19
2022-09-02T11:03:35.287Z,25.06
2022-09-02T11:06:51.788Z,25.02
2022-09-02T11:09:27.593Z,24.88
2022-09-02T11:12:06.660Z,24.89
2022-09-02T11:14:37.314Z,25.00
2022-09-02T11:17:19.626Z,25.03
2022-09-02T11:19:49.202Z,25.17
2022-09-02T11:22:25.518Z,25.23
2022-09-02T11:25:08.477Z,25.17
2022-09-02T11:27:45.391Z,25.07
2022-09-02T11:30:15.077Z,25.13
2022-09-02T11:32:51.012Z,25.06
2022-09-02T11:35:24.653Z,24.96
2022-09-02T11:38:02.625Z,25.07
2022-09-02T11:40:36.966Z,25.23
2022-09-02T11:43:15.326Z,25.32
2022-09-02T11:45:57.551Z,25.19
2022-09-02T11:48:43.724Z,25.04
2022-09-02T11:53:49.091Z,24.75
2022-09-02T11:56:24.771Z,24.76
2022-09-02T11:58:53.276Z,24.78
2022-09-02T12:01:25.598Z,24.69
2022-09-02T12:07:09.226Z,24.49
2022-09-02T12:12:35.189Z,24.54
2022-09-02T12:15:11.536Z,24.53
2022-09-02T12:18:04.567Z,24.67
2022-09-02T12:20:41.715Z,24.63
2022-09-02T12:23:11.163Z,24.82
2022-09-02T12:25:43.226Z,24.92
2022-09-02T12:28:26.682Z,24.98
2022-09-02T12:31:01.687Z,24.90
2022-09-02T12:33:29.649Z,24.95
2022-09-02T12:35:58.429Z,24.94
2022-09-02T12:38:28.602Z,24.96
2022-09-02T12:40:55.487Z,24.99
2022-09-02T12:43:41.764Z,25.01
2022-09-02T12:46:33.787Z,25.03
2022-09-02T12:49:04.944Z,24.82
2022-09-02T12:51:58.301Z,24.64
2022-09-02T12:54:37.589Z,24.28
2022-09-02T12:57:05.697Z,24.09
2022-09-02T12:59:34.085Z,23.95
2022-09-02T13:02:00.986Z,23.86
2022-09-02T13:04:27.773Z,23.76
2022-09-02T13:07:13.730Z,23.67
2022-09-02T13:09:59.039Z,23.59
2022-09-02T13:12:26.572Z,23.53
2022-09-02T13:15:08.131Z,23.40
2022-09-02T13:18:19.861Z,23.25
2022-09-02T13:20:55.635Z,23.27
2022-09-02T13:23:31.461Z,23.28
2022-09-02T13:29:22.521Z,23.24
2022-09-02T13:32:22.134Z,23.32
2022-09-02T13:34:51.083Z,23.42
2022-09-02T13:37:37.182Z,23.46
2022-09-02T13:40:07.378Z,23.49
2022-09-02T13:42:39.370Z,23.48
2022-09-02T13:45:35.643Z,23.40
2022-09-02T13:48:21.432Z,23.37
2022-09-02T13:51:20.170Z,23.26
2022-09-02T13:54:21.737Z,23.21
2022-09-02T13:56:56.634Z,23.13
2022-09-02T13:59:33.540Z,23.18
2022-09-02T14:02:00.875Z,23.23
2022-09-02T14:04:29.191Z,23.23
2022-09-02T14:06:56.561Z,23.32
2022-09-02T14:09:39.013Z,23.33
2022-09-02T14:12:10.331Z,23.32
2022-09-02T14:14:40.449Z,23.28
2022-09-02T14:17:24.273Z,23.25
2022-09-02T14:19:52.063Z,23.21
2022-09-02T14:22:29.890Z,23.19
2022-09-02T14:24:58.576Z,23.06
2022-09-02T14:27:26.578Z,23.00
2022-09-02T14:30:02.423Z,22.98
2022-09-02T14:32:30.769Z,22.97
2022-09-02T14:35:19.813Z,22.92
2022-09-02T14:37:55.838Z,22.91
2022-09-02T14:40:39.792Z,22.89
2022-09-02T14:43:13.548Z,22.88
2022-09-02T14:45:42.235Z,22.88
2022-09-02T14:48:23.727Z,22.85
2022-09-02T14:51:02.285Z,22.82
2022-09-02T14:53:31.114Z,22.83
2022-09-02T14:55:58.051Z,22.80
2022-09-02T14:58:28.842Z,22.77
2022-09-02T15:00:58.487Z,22.78
2022-09-02T15:03:26.179Z,22.77
2022-09-02T15:05:54.225Z,22.75
2022-09-02T15:08:24.122Z,22.71
2022-09-02T15:11:20.691Z,22.66
2022-09-02T15:13:47.958Z,22.63
2022-09-02T15:16:15.517Z,22.60
2022-09-02T15:18:42.612Z,22.53
2022-09-02T15:21:09.919Z,22.49
2022-09-02T15:23:41.235Z,22.49
2022-09-02T15:26:08.733Z,22.49
2022-09-02T15:28:36.079Z,22.48
2022-09-02T15:31:04.013Z,22.50
2022-09-02T15:33:31.105Z,22.49
2022-09-02T15:36:08.779Z,22.45
2022-09-02T15:38:37.771Z,22.41
2022-09-02T15:41:11.271Z,22.39
2022-09-02T15:43:39.858Z,22.39
2022-09-02T15:46:17.152Z,22.41
2022-09-02T15:48:44.303Z,22.44
2022-09-02T15:51:12.651Z,22.50
2022-09-02T15:53:39.725Z,22.51
2022-09-02T15:56:15.086Z,22.52
2022-09-02T15:58:42.599Z,22.50
2022-09-02T16:01:09.617Z,22.53
2022-09-02T16:03:37.447Z,22.49
2022-09-02T16:06:05.887Z,22.53
2022-09-02T16:08:33.477Z,22.54
2022-09-02T16:11:04.810Z,22.58
2022-09-02T16:13:34.543Z,22.59
2022-09-02T16:16:02.683Z,22.55
2022-09-02T16:18:29.555Z,22.48
2022-09-02T16:20:57.173Z,22.44
2022-09-02T16:23:24.453Z,22.40
2022-09-02T16:26:07.605Z,22.35
2022-09-02T16:28:36.148Z,22.30
2022-09-02T16:31:03.549Z,22.28
2022-09-02T16:33:30.853Z,22.25
2022-09-02T16:35:58.046Z,22.23
2022-09-02T16:38:25.106Z,22.24
2022-09-02T16:40:52.987Z,22.25
2022-09-02T16:43:21.778Z,22.26
2022-09-02T16:45:54.114Z,22.27
2022-09-02T16:48:25.780Z,22.26
2022-09-02T16:50:52.793Z,22.27
2022-09-02T16:53:19.752Z,22.24
2022-09-02T16:55:47.569Z,22.21
2022-09-02T16:58:14.478Z,22.20
2022-09-02T17:00:41.847Z,22.17
2022-09-02T17:03:12.471Z,22.10
2022-09-02T17:05:39.748Z,22.01
2022-09-02T17:08:07.361Z,21.92
2022-09-02T17:10:35.301Z,21.85
2022-09-02T17:13:06.523Z,21.76
2022-09-02T17:15:33.946Z,21.65
2022-09-02T17:18:01.070Z,21.56
2022-09-02T17:20:28.282Z,21.47
2022-09-02T17:22:55.562Z,21.40
2022-09-02T17:25:22.427Z,21.34
2022-09-02T17:27:49.311Z,21.24
2022-09-02T17:30:16.854Z,21.17
2022-09-02T17:32:43.854Z,21.09
2022-09-02T17:35:14.967Z,21.02
2022-09-02T17:37:42.189Z,20.95
2022-09-02T17:40:32.171Z,20.87
2022-09-02T17:42:59.308Z,20.77
2022-09-02T17:45:26.193Z,20.70
2022-09-02T17:47:53.073Z,20.64
2022-09-02T17:50:20.353Z,20.58
2022-09-02T17:52:47.291Z,20.51
2022-09-02T17:55:14.145Z,20.45
2022-09-02T17:57:50.198Z,20.40
2022-09-02T18:00:26.701Z,20.38
2022-09-02T18:02:55.595Z,20.28
2022-09-02T18:05:33.043Z,20.24
2022-09-02T18:08:11.705Z,20.17
2022-09-02T18:10:40.261Z,20.11
2022-09-02T18:13:14.273Z,20.02
2022-09-02T18:15:56.692Z,19.94
2022-09-02T18:18:27.753Z,19.86
2022-09-02T18:21:02.686Z,19.79
2022-09-02T18:23:48.184Z,19.75
2022-09-02T18:26:37.863Z,19.72
2022-09-02T18:29:05.934Z,19.65
2022-09-02T18:31:44.009Z,19.61
2022-09-02T18:34:21.377Z,19.57
2022-09-02T18:36:48.776Z,19.55
2022-09-02T18:39:34.746Z,19.53
2022-09-02T18:42:11.538Z,19.51
2022-09-02T18:44:45.686Z,19.44
2022-09-02T18:47:15.382Z,19.36
2022-09-02T18:49:43.827Z,19.29
2022-09-02T18:52:11.548Z,19.25
2022-09-02T18:54:45.084Z,19.22
2022-09-02T18:57:13.602Z,19.21
2022-09-02T18:59:47.374Z,19.17
2022-09-02T19:02:35.820Z,19.13
2022-09-02T19:05:07.237Z,19.11
2022-09-02T19:07:55.001Z,19.05
2022-09-02T19:10:22.926Z,19.02
2022-09-02T19:12:50.226Z,18.95
2022-09-02T19:15:17.639Z,18.92
2022-09-02T19:17:44.478Z,18.88
2022-09-02T19:20:11.817Z,18.84
2022-09-02T19:22:40.885Z,18.82
2022-09-02T19:25:13.191Z,18.80
2022-09-02T19:27:41.533Z,18.77
2022-09-02T19:30:12.518Z,18.75
2022-09-02T19:32:42.044Z,18.73
2022-09-02T19:35:10.118Z,18.70
2022-09-02T19:37:44.604Z,18.67
2022-09-02T19:40:18.872Z,18.61
2022-09-02T19:42:48.026Z,18.57
2022-09-02T19:45:16.618Z,18.54
2022-09-02T19:48:06.040Z,18.50
2022-09-02T19:50:42.468Z,18.44
2022-09-02T19:53:10.846Z,18.39
2022-09-02T19:55:38.023Z,18.33
2022-09-02T19:58:04.858Z,18.26
2022-09-02T20:00:33.392Z,18.24
2022-09-02T20:03:00.759Z,18.22
2022-09-02T20:05:28.783Z,18.22
2022-09-02T20:07:56.561Z,18.19
2022-09-02T20:10:28.231Z,18.18
2022-09-02T20:12:57.969Z,18.16
2022-09-02T20:15:25.211Z,18.13
2022-09-02T20:17:52.225Z,18.13
2022-09-02T20:20:20.304Z,18.10
2022-09-02T20:22:48.741Z,18.11
2022-09-02T20:25:15.922Z,18.10
2022-09-02T20:27:57.274Z,18.10
2022-09-02T20:30:33.598Z,18.07
2022-09-02T20:33:06.382Z,18.05
2022-09-02T20:35:41.763Z,18.04
2022-09-02T20:38:27.203Z,18.05
2022-09-02T20:41:02.571Z,18.06
2022-09-02T20:43:32.470Z,18.04
2022-09-02T20:46:02.591Z,17.98
2022-09-02T20:48:41.871Z,17.91
2022-09-02T20:51:19.678Z,17.85
2022-09-02T20:53:55.608Z,17.84
2022-09-02T20:56:55.357Z,17.81
2022-09-02T20:59:28.290Z,17.81
2022-09-02T21:01:59.840Z,17.77
2022-09-02T21:04:37.016Z,17.76
2022-09-02T21:07:08.479Z,17.72
2022-09-02T21:09:35.246Z,17.71
2022-09-02T21:12:04.244Z,17.71
2022-09-02T21:14:45.493Z,17.67
2022-09-02T21:17:16.055Z,17.65
2022-09-02T21:19:48.018Z,17.62
2022-09-02T21:22:36.866Z,17.60
2022-09-02T21:25:04.074Z,17.59
2022-09-02T21:27:49.196Z,17.60
2022-09-02T21:30:23.972Z,17.54
2022-09-02T21:33:10.498Z,17.54
2022-09-02T21:35:40.303Z,17.51
2022-09-02T21:38:12.463Z,17.42
2022-09-02T21:40:51.535Z,17.34
2022-09-02T21:43:37.310Z,17.32
2022-09-02T21:46:19.715Z,17.28
2022-09-02T21:48:49.779Z,17.27
2022-09-02T21:51:36.684Z,17.25
2022-09-02T21:54:23.633Z,17.25
2022-09-02T21:56:57.534Z,17.21
2022-09-02T21:59:39.634Z,17.17
2022-09-02T22:02:25.848Z,17.17
2022-09-02T22:05:11.243Z,17.14
2022-09-02T22:07:49.376Z,17.10
2022-09-02T22:10:23.972Z,17.07
2022-09-02T22:12:52.547Z,17.05
2022-09-02T22:15:28.064Z,17.04
2022-09-02T22:18:02.674Z,16.98
2022-09-02T22:20:35.078Z,16.93
2022-09-02T22:23:05.208Z,16.84
2022-09-02T22:25:33.836Z,16.81
2022-09-02T22:28:12.567Z,16.77
2022-09-02T22:30:43.983Z,16.72
2022-09-02T22:33:12.836Z,16.67
2022-09-02T22:35:53.639Z,16.68
2022-09-02T22:38:29.212Z,16.69
2022-09-02T22:41:05.536Z,16.71
2022-09-02T22:43:41.441Z,16.74
2022-09-02T22:46:29.990Z,16.70
2022-09-02T22:49:17.854Z,16.67
2022-09-02T22:52:08.770Z,16.64
2022-09-02T22:54:35.700Z,16.66
2022-09-02T22:57:02.955Z,16.65
2022-09-02T22:59:32.248Z,16.57
2022-09-02T23:03:13.195Z,16.53
2022-09-02T23:06:03.359Z,16.52
2022-09-02T23:08:31.757Z,16.51
2022-09-02T23:11:12.401Z,16.48
2022-09-02T23:13:55.950Z,16.43
2022-09-02T23:16:35.285Z,16.35
2022-09-02T23:19:14.565Z,16.25
2022-09-02T23:22:01.484Z,16.20
2022-09-02T23:24:45.158Z,16.16
2022-09-02T23:27:15.695Z,16.14
2022-09-02T23:29:43.037Z,16.12
2022-09-02T23:32:28.296Z,16.06
2022-09-02T23:35:11.403Z,16.03
2022-09-02T23:37:41.039Z,16.05
2022-09-02T23:40:11.566Z,16.08
2022-09-02T23:42:39.120Z,16.06
2022-09-02T23:45:20.525Z,16.04
2022-09-02T23:47:59.118Z,16.04
2022-09-02T23:50:39.368Z,16.04
2022-09-02T23:53:11.965Z,16.01
2022-09-02T23:55:41.775Z,16.03
2022-09-02T23:58:10.955Z,16.05
